Briefing drone pour Le peage-de-roussillon

Rechercher une autre localisation

Conditions de vol :


Nous sommes le : Jeudi 29 septembre 2022
Il est 02:01 UTC (04:01 LT)

Lever de soleil : 05:09 UTC (07:09 LT)
Coucher de soleil : 17:52 UTC (19:52 LT)

Météo

L'essentiel des conditions de vol

VIGILANCE MÉTÉO FRANCE - Isère (38)
Vigilance Jaune : Pluie-inondation
CARTE TEMSI
CARTES DES FRONTS
METAR de LFMH
LFMH 290130Z AUTO VRB02KT 9999 BKN041 BKN047 BKN058 11/10 Q1002

Date d'émission: 29/09/2022
Heure d'émission: 01:30 UTC
Vent: Variable 2 KT (4 km/h)
Visibilité horizontale: > 10 km
Plafond :
- Nuages morcelés à 4100ft (1250m)
- Nuages morcelés à 4700ft (1433m)
- Nuages morcelés à 5800ft (1768m)
Température: 11 °C
Point de rosée: 10 °C
Humidité: 94%
Pression (QNH): 1002 hPa
TAF de LFMH
LFMH 161901Z 1619/1712 CNL

Conditions prévues :

Heure d'émission : Bulletin éffectué le 16 à 19:00 UTC
Prévision : Valide du 16 a 19:00 UTC au 17 a 12:00 UTC
Nuages : à 0ft (0 m)
WEBCAM POUR LE PEAGE-DE-ROUSSILLON

Réglementation

Voler en sécurité

CARTES AERONAUTIQUE 1/500.000
CARTE AZBA (Reseau basse altitude)
CARTES VAC (LFMH)
SUP AIP




Chargement des AIP...
NOTAM (LE PEAGE-DE-ROUSSILLON + Terrain à proximité / FIR )




Chargement des NOTAMS...
CONTACT PREFECTURE 38


Avertissement : Les données mises à disposition sont indicatives. Oxygène Drone ne pourra être tenu responsable de dégâts causés aux biens et aux personnes.